createdAt,value
2022-10-23T00:01:16.207Z,6.20
2022-10-23T00:03:19.020Z,5.67
2022-10-23T00:05:22.245Z,5.37
2022-10-23T00:07:25.108Z,5.90
2022-10-23T00:09:27.943Z,5.50
2022-10-23T00:11:31.284Z,6.33
2022-10-23T00:13:34.219Z,4.97
2022-10-23T00:15:38.371Z,5.20
2022-10-23T00:17:41.732Z,5.20
2022-10-23T00:19:44.776Z,4.70
2022-10-23T00:21:47.676Z,5.57
2022-10-23T00:23:50.472Z,4.60
2022-10-23T00:25:53.707Z,4.80
2022-10-23T00:27:56.565Z,3.50
2022-10-23T00:29:59.398Z,3.97
2022-10-23T00:32:03.617Z,4.23
2022-10-23T00:34:08.326Z,3.90
2022-10-23T00:36:12.789Z,3.90
2022-10-23T00:38:15.624Z,3.40
2022-10-23T00:40:18.505Z,3.90
2022-10-23T00:42:21.909Z,3.40
2022-10-23T00:45:02.270Z,3.50
2022-10-23T00:47:06.488Z,3.73
2022-10-23T00:49:09.678Z,4.00
2022-10-23T00:51:12.571Z,4.23
2022-10-23T00:53:15.394Z,3.87
2022-10-23T00:55:18.512Z,3.97
2022-10-23T00:57:21.393Z,3.77
2022-10-23T00:59:24.282Z,3.83
2022-10-23T01:01:27.301Z,3.57
2022-10-23T01:03:31.544Z,4.20
2022-10-23T01:05:37.177Z,3.80
2022-10-23T01:07:44.646Z,4.10
2022-10-23T01:09:49.415Z,4.00
2022-10-23T01:11:54.105Z,4.60
2022-10-23T01:14:00.904Z,4.10
2022-10-23T01:16:06.978Z,4.70
2022-10-23T01:18:13.936Z,3.60
2022-10-23T01:20:28.754Z,3.93
2022-10-23T01:22:51.749Z,5.10
2022-10-23T01:24:57.007Z,4.30
2022-10-23T01:27:21.167Z,3.60
2022-10-23T01:29:26.685Z,3.80
2022-10-23T01:31:31.646Z,4.43
2022-10-23T01:33:36.282Z,3.87
2022-10-23T01:35:42.048Z,3.87
2022-10-23T01:37:46.921Z,4.00
2022-10-23T01:39:51.469Z,4.30
2022-10-23T01:41:55.946Z,4.07
2022-10-23T01:44:02.705Z,4.07
2022-10-23T01:46:06.828Z,4.57
2022-10-23T01:48:11.080Z,4.67
2022-10-23T01:50:14.444Z,4.20
2022-10-23T01:52:17.305Z,4.80
2022-10-23T01:54:20.504Z,4.00
2022-10-23T01:56:25.210Z,4.43
2022-10-23T01:58:28.121Z,4.70
2022-10-23T02:00:32.351Z,4.83
2022-10-23T02:02:35.274Z,5.13
2022-10-23T02:04:41.368Z,4.60
2022-10-23T02:06:44.245Z,4.23
2022-10-23T02:08:47.095Z,4.30
2022-10-23T02:10:51.927Z,4.60
2022-10-23T02:12:58.997Z,4.17
2022-10-23T02:15:04.338Z,5.00
2022-10-23T02:17:12.142Z,4.87
2022-10-23T02:19:18.717Z,4.57
2022-10-23T02:21:24.879Z,5.13
2022-10-23T02:23:30.368Z,5.20
2022-10-23T02:25:34.579Z,4.80
2022-10-23T02:27:40.968Z,4.60
2022-10-23T02:29:45.297Z,4.87
2022-10-23T02:31:48.377Z,4.70
2022-10-23T02:33:52.578Z,4.67
2022-10-23T02:35:55.436Z,4.87
2022-10-23T02:37:59.340Z,4.70
2022-10-23T02:40:03.871Z,3.77
2022-10-23T02:42:10.016Z,4.73
2022-10-23T02:44:22.707Z,4.60
2022-10-23T02:46:29.192Z,5.30
2022-10-23T02:48:34.437Z,5.10
2022-10-23T02:50:40.293Z,5.07
2022-10-23T02:52:45.033Z,4.50
2022-10-23T02:55:12.065Z,5.60
2022-10-23T02:57:20.437Z,5.53
2022-10-23T02:59:24.647Z,5.33
2022-10-23T03:01:28.521Z,6.30
2022-10-23T03:03:32.970Z,6.00
2022-10-23T03:05:39.206Z,5.53
2022-10-23T03:07:42.666Z,5.47
2022-10-23T03:09:45.811Z,5.80
2022-10-23T03:11:48.652Z,5.17
2022-10-23T03:13:51.513Z,5.73
2022-10-23T03:15:54.463Z,5.70
2022-10-23T03:17:57.316Z,5.83
2022-10-23T03:20:00.332Z,5.90
2022-10-23T03:22:04.557Z,5.33
2022-10-23T03:24:07.764Z,6.70
2022-10-23T03:26:10.697Z,5.57
2022-10-23T03:28:13.536Z,4.90
2022-10-23T03:30:16.412Z,5.23
2022-10-23T03:32:19.280Z,4.67
2022-10-23T03:34:22.185Z,5.10
2022-10-23T03:36:25.053Z,5.53
2022-10-23T03:38:29.256Z,4.80
2022-10-23T03:40:32.137Z,6.70
2022-10-23T03:42:34.995Z,5.40
2022-10-23T03:44:37.816Z,5.97
2022-10-23T03:46:40.813Z,6.27
2022-10-23T03:48:43.659Z,6.00
2022-10-23T03:50:46.520Z,6.50
2022-10-23T03:52:49.354Z,5.73
2022-10-23T03:54:53.531Z,5.80
2022-10-23T03:56:57.573Z,5.60
2022-10-23T03:59:00.697Z,6.30
2022-10-23T04:01:03.616Z,5.63
2022-10-23T04:03:06.496Z,5.60
2022-10-23T04:05:09.541Z,6.13
2022-10-23T04:07:12.437Z,6.13
2022-10-23T04:09:15.267Z,5.33
2022-10-23T04:11:19.488Z,5.33
2022-10-23T04:13:22.339Z,6.10
2022-10-23T04:15:25.210Z,6.03
2022-10-23T04:19:35.789Z,6.17
2022-10-23T04:21:38.646Z,6.23
2022-10-23T04:23:41.493Z,5.63
2022-10-23T04:25:44.380Z,6.43
2022-10-23T04:27:49.210Z,5.63
2022-10-23T04:29:54.337Z,6.67
2022-10-23T04:31:59.749Z,5.67
2022-10-23T04:34:02.623Z,5.70
2022-10-23T04:36:06.144Z,5.10
2022-10-23T04:38:08.976Z,5.20
2022-10-23T04:40:12.047Z,5.10
2022-10-23T04:42:14.992Z,6.57
2022-10-23T04:44:19.233Z,5.73
2022-10-23T04:46:22.073Z,5.40
2022-10-23T04:48:27.061Z,5.67
2022-10-23T04:50:31.959Z,6.20
2022-10-23T04:52:34.831Z,4.77
2022-10-23T04:54:38.382Z,6.13
2022-10-23T04:56:41.234Z,5.77
2022-10-23T04:58:44.072Z,4.40
2022-10-23T05:00:48.598Z,3.73
2022-10-23T05:02:51.476Z,4.43
2022-10-23T05:04:54.584Z,4.50
2022-10-23T05:06:57.444Z,5.47
2022-10-23T05:09:00.260Z,6.00
2022-10-23T05:11:03.115Z,4.90
2022-10-23T05:13:06.070Z,5.30
2022-10-23T05:15:09.292Z,5.20
2022-10-23T05:17:15.575Z,5.23
2022-10-23T05:19:24.157Z,5.03
2022-10-23T05:21:28.635Z,5.00
2022-10-23T05:23:31.459Z,5.30
2022-10-23T05:25:34.274Z,5.03
2022-10-23T05:27:37.066Z,5.40
2022-10-23T05:29:39.863Z,5.93
2022-10-23T05:31:42.667Z,5.37
2022-10-23T05:33:46.827Z,5.33
2022-10-23T05:35:49.648Z,5.07
2022-10-23T05:37:52.540Z,5.33
2022-10-23T05:39:55.317Z,5.63
2022-10-23T05:41:58.147Z,6.00
2022-10-23T05:44:00.936Z,5.60
2022-10-23T05:46:06.122Z,5.63
2022-10-23T05:48:17.025Z,5.67
2022-10-23T05:50:26.887Z,5.60
2022-10-23T05:52:29.691Z,5.77
2022-10-23T05:54:32.494Z,5.60
2022-10-23T05:56:35.498Z,30.77
2022-10-23T05:58:38.291Z,61.60
2022-10-23T06:00:41.137Z,25.30
2022-10-23T06:02:43.934Z,13.10
2022-10-23T06:04:46.725Z,11.83
2022-10-23T06:06:50.903Z,11.70
2022-10-23T06:08:53.744Z,18.13
2022-10-23T06:10:56.658Z,9.10
2022-10-23T06:12:59.441Z,7.53
2022-10-23T06:15:02.239Z,8.30
2022-10-23T06:17:05.414Z,7.67
2022-10-23T06:19:10.407Z,8.20
2022-10-23T06:21:13.314Z,8.00
2022-10-23T06:23:17.470Z,9.20
2022-10-23T06:25:20.261Z,16.53
2022-10-23T06:27:23.215Z,20.17
2022-10-23T06:29:26.131Z,16.77
2022-10-23T06:31:28.964Z,13.10
2022-10-23T06:33:31.757Z,14.90
2022-10-23T06:35:34.563Z,14.27
2022-10-23T06:37:37.362Z,7.40
2022-10-23T06:39:41.559Z,6.83
2022-10-23T06:41:45.379Z,7.47
2022-10-23T06:43:48.957Z,6.70
2022-10-23T06:45:51.749Z,7.33
2022-10-23T06:47:54.592Z,7.20
2022-10-23T06:49:57.387Z,7.83
2022-10-23T06:52:00.205Z,7.10
2022-10-23T06:54:02.995Z,8.33
2022-10-23T06:56:07.804Z,8.00
2022-10-23T06:58:11.382Z,8.10
2022-10-23T07:00:14.790Z,13.40
2022-10-23T07:02:17.614Z,8.50
2022-10-23T07:04:20.423Z,13.33
2022-10-23T07:06:23.231Z,8.83
2022-10-23T07:08:26.027Z,7.33
2022-10-23T07:10:28.887Z,6.23
2022-10-23T07:12:33.063Z,7.10
2022-10-23T07:14:35.919Z,5.73
2022-10-23T07:16:38.786Z,6.90
2022-10-23T07:18:41.594Z,5.93
2022-10-23T07:20:44.457Z,5.20
2022-10-23T07:22:52.157Z,6.40
2022-10-23T07:24:54.957Z,7.73
2022-10-23T07:26:58.223Z,5.97
2022-10-23T07:29:02.376Z,5.23
2022-10-23T07:31:05.420Z,6.00
2022-10-23T07:33:08.325Z,6.20
2022-10-23T07:35:11.641Z,6.60
2022-10-23T07:37:14.512Z,4.10
2022-10-23T07:39:17.315Z,5.10
2022-10-23T07:41:20.137Z,5.93
2022-10-23T07:43:23.010Z,5.30
2022-10-23T07:45:27.305Z,5.10
2022-10-23T07:47:30.187Z,6.07
2022-10-23T07:49:32.978Z,6.60
2022-10-23T07:51:35.791Z,4.23
2022-10-23T07:53:38.680Z,4.60
2022-10-23T07:55:41.463Z,4.17
2022-10-23T07:57:44.278Z,5.83
2022-10-23T07:59:47.082Z,4.90
2022-10-23T08:01:52.698Z,5.00
2022-10-23T08:03:58.447Z,4.80
2022-10-23T08:06:01.329Z,4.50
2022-10-23T08:08:04.216Z,4.60
2022-10-23T08:10:07.973Z,4.40
2022-10-23T08:12:10.983Z,4.80
2022-10-23T08:14:13.783Z,5.00
2022-10-23T08:16:16.545Z,3.63
2022-10-23T08:18:20.943Z,4.57
2022-10-23T08:20:23.731Z,4.00
2022-10-23T08:22:26.631Z,5.03
2022-10-23T08:24:29.405Z,4.43
2022-10-23T08:26:32.227Z,4.60
2022-10-23T08:28:35.017Z,4.03
2022-10-23T08:30:37.974Z,3.57
2022-10-23T08:32:40.766Z,3.90
2022-10-23T08:34:44.971Z,3.70
2022-10-23T08:36:48.214Z,3.83
2022-10-23T08:38:52.112Z,3.90
2022-10-23T08:40:54.955Z,4.30
2022-10-23T08:43:00.205Z,4.20
2022-10-23T08:45:05.055Z,3.70
2022-10-23T08:47:09.604Z,3.77
2022-10-23T08:49:21.957Z,3.00
2022-10-23T08:51:28.340Z,3.53
2022-10-23T08:53:33.716Z,3.50
2022-10-23T08:55:37.358Z,3.67
2022-10-23T08:57:43.773Z,3.63
2022-10-23T08:59:48.022Z,3.70
2022-10-23T09:01:52.274Z,4.10
2022-10-23T09:03:55.262Z,4.03
2022-10-23T09:06:05.789Z,3.47
2022-10-23T09:08:21.950Z,3.20
2022-10-23T09:10:34.122Z,4.00
2022-10-23T09:12:36.989Z,3.63
2022-10-23T09:14:56.489Z,3.40
2022-10-23T09:17:06.133Z,3.30
2022-10-23T09:19:12.812Z,3.00
2022-10-23T09:21:15.778Z,3.30
2022-10-23T09:23:20.743Z,3.30
2022-10-23T09:25:25.130Z,3.00
2022-10-23T09:27:27.973Z,2.70
2022-10-23T09:29:32.876Z,3.03
2022-10-23T09:31:35.801Z,2.80
2022-10-23T09:33:38.634Z,3.60
2022-10-23T09:35:51.861Z,3.43
2022-10-23T09:37:55.720Z,3.03
2022-10-23T09:40:19.009Z,3.17
2022-10-23T09:42:23.689Z,2.47
2022-10-23T09:44:26.973Z,2.63
2022-10-23T09:46:39.090Z,3.10
2022-10-23T09:48:42.283Z,2.70
2022-10-23T09:50:55.292Z,3.03
2022-10-23T09:52:58.136Z,3.47
2022-10-23T09:55:02.024Z,2.70
2022-10-23T09:57:14.288Z,2.60
2022-10-23T09:59:22.817Z,3.30
2022-10-23T10:01:26.305Z,3.10
2022-10-23T10:03:29.197Z,2.70
2022-10-23T10:05:32.948Z,2.70
2022-10-23T10:07:36.813Z,3.00
2022-10-23T10:09:39.767Z,3.07
2022-10-23T10:11:45.277Z,2.83
2022-10-23T10:14:04.329Z,2.50
2022-10-23T10:16:08.743Z,2.43
2022-10-23T10:18:15.943Z,2.20
2022-10-23T10:20:30.416Z,2.83
2022-10-23T10:22:34.968Z,2.67
2022-10-23T10:24:40.922Z,2.60
2022-10-23T10:26:51.003Z,2.67
2022-10-23T10:29:06.381Z,3.00
2022-10-23T10:31:12.096Z,3.17
2022-10-23T10:33:17.308Z,2.50
2022-10-23T10:35:35.549Z,2.20
2022-10-23T10:37:47.338Z,2.67
2022-10-23T10:39:55.476Z,3.30
2022-10-23T10:42:05.361Z,2.80
2022-10-23T10:44:36.659Z,2.53
2022-10-23T10:46:41.232Z,2.70
2022-10-23T10:48:47.042Z,2.13
2022-10-23T10:50:52.047Z,2.20
2022-10-23T10:52:57.757Z,2.40
2022-10-23T10:55:03.701Z,2.43
2022-10-23T10:57:10.440Z,2.30
2022-10-23T10:59:15.636Z,2.53
2022-10-23T11:01:26.510Z,2.20
2022-10-23T11:03:36.161Z,2.20
2022-10-23T11:05:43.606Z,2.67
2022-10-23T11:07:53.830Z,2.30
2022-10-23T11:09:57.077Z,2.27
2022-10-23T11:11:59.903Z,2.60
2022-10-23T11:14:02.729Z,2.53
2022-10-23T11:16:09.909Z,2.50
2022-10-23T11:18:18.895Z,2.80
2022-10-23T11:20:40.964Z,2.60
2022-10-23T11:22:46.535Z,2.70
2022-10-23T11:25:26.768Z,2.40
2022-10-23T11:27:36.267Z,2.47
2022-10-23T11:30:00.004Z,2.67
2022-10-23T11:32:15.423Z,2.33
2022-10-23T11:34:48.443Z,2.60
2022-10-23T11:36:52.205Z,2.07
2022-10-23T11:38:59.125Z,2.20
2022-10-23T11:41:02.688Z,2.30
2022-10-23T11:43:05.562Z,1.90
2022-10-23T11:45:27.392Z,2.37
2022-10-23T11:47:39.553Z,2.43
2022-10-23T11:49:43.082Z,2.70
2022-10-23T11:51:47.333Z,2.30
2022-10-23T11:53:50.188Z,2.20
2022-10-23T11:56:04.520Z,2.67
2022-10-23T11:58:15.651Z,6.17
2022-10-23T12:00:22.616Z,2.37
2022-10-23T12:02:31.937Z,2.40
2022-10-23T12:04:39.381Z,2.37
2022-10-23T12:06:43.994Z,2.23
2022-10-23T12:08:51.536Z,2.00
2022-10-23T12:10:55.361Z,1.83
2022-10-23T12:12:59.250Z,2.07
2022-10-23T12:15:22.341Z,1.97
2022-10-23T12:17:35.785Z,1.90
2022-10-23T12:19:45.506Z,2.30
2022-10-23T12:21:48.352Z,1.90
2022-10-23T12:24:04.025Z,2.00
2022-10-23T12:26:27.921Z,1.90
2022-10-23T12:28:34.001Z,2.57
2022-10-23T12:30:40.970Z,2.17
2022-10-23T12:32:54.445Z,1.83
2022-10-23T12:35:07.808Z,2.17
2022-10-23T12:37:29.452Z,2.03
2022-10-23T12:39:36.285Z,2.27
2022-10-23T12:41:39.141Z,2.57
2022-10-23T12:43:42.368Z,2.23
2022-10-23T12:45:45.200Z,2.00
2022-10-23T12:47:48.258Z,2.67
2022-10-23T12:49:51.189Z,1.70
2022-10-23T12:51:57.596Z,2.00
2022-10-23T12:54:00.532Z,2.53
2022-10-23T12:56:05.372Z,2.57
2022-10-23T12:58:22.236Z,2.13
2022-10-23T13:00:25.669Z,1.97
2022-10-23T13:02:29.492Z,2.23
2022-10-23T13:04:32.919Z,2.37
2022-10-23T13:06:35.774Z,2.40
2022-10-23T13:08:41.436Z,2.23
2022-10-23T13:10:44.665Z,2.73
2022-10-23T13:12:53.516Z,1.60
2022-10-23T13:14:57.941Z,2.10
2022-10-23T13:17:02.140Z,2.37
2022-10-23T13:19:04.961Z,1.87
2022-10-23T13:21:15.448Z,2.50
2022-10-23T13:23:21.550Z,1.90
2022-10-23T13:25:24.862Z,2.17
2022-10-23T13:27:32.109Z,2.37
2022-10-23T13:29:36.299Z,2.43
2022-10-23T13:31:39.173Z,1.90
2022-10-23T13:33:42.714Z,1.70
2022-10-23T13:35:45.548Z,2.00
2022-10-23T13:37:48.483Z,2.07
2022-10-23T13:40:00.547Z,2.40
2022-10-23T13:42:12.469Z,2.50
2022-10-23T13:44:16.257Z,1.90
2022-10-23T13:46:21.395Z,2.30
2022-10-23T13:48:24.272Z,1.80
2022-10-23T13:50:27.156Z,1.87
2022-10-23T13:52:30.013Z,2.00
2022-10-23T13:54:32.879Z,2.17
2022-10-23T13:56:35.746Z,2.00
2022-10-23T13:58:38.601Z,1.80
2022-10-23T14:00:43.288Z,2.20
2022-10-23T14:02:47.540Z,2.07
2022-10-23T14:04:50.569Z,2.40
2022-10-23T14:06:58.335Z,2.00
2022-10-23T14:09:01.177Z,2.50
2022-10-23T14:11:04.100Z,2.63
2022-10-23T14:13:06.970Z,2.70
2022-10-23T14:15:11.002Z,2.40
2022-10-23T14:17:13.860Z,2.20
2022-10-23T14:19:18.062Z,2.10
2022-10-23T14:21:21.766Z,2.43
2022-10-23T14:23:24.588Z,2.10
2022-10-23T14:25:27.428Z,2.47
2022-10-23T14:27:30.959Z,2.13
2022-10-23T14:29:33.875Z,2.00
2022-10-23T14:31:36.736Z,1.87
2022-10-23T14:33:39.792Z,2.30
2022-10-23T14:35:44.026Z,2.53
2022-10-23T14:37:47.055Z,2.17
2022-10-23T14:39:50.466Z,2.13
2022-10-23T14:41:53.410Z,2.30
2022-10-23T14:43:56.251Z,2.00
2022-10-23T14:45:59.089Z,2.37
2022-10-23T14:48:02.489Z,2.60
2022-10-23T14:50:06.092Z,2.10
2022-10-23T14:52:10.294Z,3.23
2022-10-23T14:54:13.220Z,2.63
2022-10-23T14:56:16.260Z,3.10
2022-10-23T14:58:19.125Z,2.30
2022-10-23T15:00:22.095Z,2.13
2022-10-23T15:02:24.953Z,2.10
2022-10-23T15:04:27.795Z,2.13
2022-10-23T15:06:30.650Z,2.30
2022-10-23T15:08:34.961Z,2.27
2022-10-23T15:10:39.144Z,3.03
2022-10-23T15:12:42.249Z,2.50
2022-10-23T15:14:45.335Z,1.77
2022-10-23T15:16:48.396Z,2.10
2022-10-23T15:18:51.270Z,2.23
2022-10-23T15:20:54.145Z,3.07
2022-10-23T15:22:57.033Z,2.03
2022-10-23T15:25:01.216Z,2.37
2022-10-23T15:27:04.166Z,2.13
2022-10-23T15:29:07.008Z,1.88
2022-10-23T15:31:25.188Z,2.40
2022-10-23T15:33:28.239Z,1.93
2022-10-23T15:35:32.034Z,2.43
2022-10-23T15:37:34.910Z,2.63
2022-10-23T15:39:37.758Z,2.00
2022-10-23T15:41:42.488Z,2.03
2022-10-23T15:43:45.370Z,2.37
2022-10-23T15:45:48.256Z,2.20
2022-10-23T15:47:51.340Z,3.03
2022-10-23T15:49:54.185Z,2.47
2022-10-23T15:51:57.291Z,2.40
2022-10-23T15:54:00.199Z,2.17
2022-10-23T15:56:03.040Z,2.80
2022-10-23T15:58:07.266Z,2.47
2022-10-23T16:00:11.380Z,2.17
2022-10-23T16:02:15.443Z,2.27
2022-10-23T16:04:18.420Z,2.20
2022-10-23T16:06:21.545Z,2.40
2022-10-23T16:08:26.072Z,3.43
